Time;durP1;ratioP1;P1;durP2;ratioP2;P2;SDS_P1;SDS_P2;PMS_P1;PMS_P2;Temp;Humidity;BMP_temperature;BMP_pressure;BME280_temperature;BME280_humidity;BME280_pressure;Samples;Min_cycle;Max_cycle;Signal;HPM_P1;HPM_P2
2023/10/12 00:01:57;;;;;;;3.78;1.17;;;;;;;11.82;68.48;98650.16;5085055;28;20074;-66
2023/10/12 00:04:28;;;;;;;11.90;2.75;;;;;;;11.74;67.81;98650.47;5085071;28;20013;-66
2023/10/12 00:06:58;;;;;;;7.68;1.42;;;;;;;11.75;68.09;98645.22;5084851;28;20024;-65
2023/10/12 00:09:26;;;;;;;8.73;1.00;;;;;;;11.71;67.22;98616.81;5085043;28;20541;-67
2023/10/12 00:11:57;;;;;;;18.30;1.95;;;;;;;11.59;67.37;98623.34;5066779;28;20024;-67
2023/10/12 00:14:32;;;;;;;2.33;1.07;;;;;;;11.78;66.76;98639.03;5084575;28;20388;-66
2023/10/12 00:16:58;;;;;;;2.17;1.65;;;;;;;11.81;67.32;98638.03;5084587;28;20023;-66
2023/10/12 00:19:23;;;;;;;1.90;1.25;;;;;;;11.82;67.27;98645.78;5084783;28;20044;-65
2023/10/12 00:21:50;;;;;;;4.80;1.00;;;;;;;11.88;67.45;98642.94;5084805;28;20059;-66
2023/10/12 00:24:17;;;;;;;12.30;2.42;;;;;;;11.90;66.89;98659.31;5084995;28;20017;-65
2023/10/12 00:26:43;;;;;;;8.45;3.03;;;;;;;11.89;67.44;98665.41;5083455;28;20017;-65
2023/10/12 00:29:10;;;;;;;11.05;2.97;;;;;;;11.90;66.81;98646.31;5084550;28;20468;-64
2023/10/12 00:31:41;;;;;;;5.95;2.20;;;;;;;11.92;66.80;98653.22;5084627;28;20146;-65
2023/10/12 00:34:08;;;;;;;4.38;1.50;;;;;;;11.85;65.73;98650.84;5084767;28;20021;-67
2023/10/12 00:36:37;;;;;;;14.35;2.35;;;;;;;11.86;65.60;98659.50;5084693;28;20054;-67
2023/10/12 00:39:09;;;;;;;6.95;2.38;;;;;;;11.86;65.83;98655.16;5066900;28;20403;-66
2023/10/12 00:41:44;;;;;;;1.92;1.15;;;;;;;11.92;66.09;98659.22;5084956;28;20029;-67
2023/10/12 00:44:18;;;;;;;22.88;2.63;;;;;;;11.87;66.01;98659.44;5084447;28;20032;-65
2023/10/12 00:49:26;;;;;;;4.18;1.45;;;;;;;11.87;65.49;98659.44;5084855;28;20024;-66
2023/10/12 00:51:59;;;;;;;12.00;2.58;;;;;;;11.82;65.69;98653.56;5084409;28;20025;-66
2023/10/12 00:57:05;;;;;;;39.38;2.60;;;;;;;11.81;66.59;98651.03;5086714;28;20032;-66
2023/10/12 00:59:34;;;;;;;7.25;1.65;;;;;;;11.87;66.21;98658.56;5088388;28;20025;-65
2023/10/12 01:02:01;;;;;;;6.43;1.95;;;;;;;11.95;65.95;98658.28;5088064;28;20085;-65
2023/10/12 01:04:27;;;;;;;2.42;1.63;;;;;;;11.84;66.66;98646.56;5088152;28;20455;-66
2023/10/12 01:06:59;;;;;;;4.65;3.17;;;;;;;11.83;66.83;98647.47;5087743;28;20047;-66
2023/10/12 01:09:38;;;;;;;;;;;;;;;11.90;66.50;98646.31;5088575;28;20024;-66
2023/10/12 01:12:12;;;;;;;1.95;0.93;;;;;;;11.86;66.72;98646.50;5088187;28;19908;-66
2023/10/12 01:14:40;;;;;;;2.58;0.95;;;;;;;11.87;67.39;98633.44;5087968;28;20044;-67
2023/10/12 01:17:08;;;;;;;12.80;1.73;;;;;;;11.86;67.99;98643.91;5069771;28;20059;-65
2023/10/12 01:19:44;;;;;;;0.80;0.77;;;;;;;11.80;68.78;98633.75;5086516;28;20031;-67
2023/10/12 01:22:14;;;;;;;5.10;1.70;;;;;;;11.69;68.83;98657.59;5087533;28;20020;-64
2023/10/12 01:25:11;;;;;;;5.20;1.55;;;;;;;11.57;69.38;98659.78;5087784;28;20020;-66
2023/10/12 01:27:30;;;;;;;7.60;2.28;;;;;;;11.48;69.48;98657.56;5086777;28;20036;-66
2023/10/12 01:29:59;;;;;;;8.77;1.20;;;;;;;11.48;69.70;98649.78;5087641;28;20084;-65
2023/10/12 01:32:27;;;;;;;1.73;1.17;;;;;;;11.55;69.28;98661.59;5087603;28;20051;-66
2023/10/12 01:34:55;;;;;;;2.30;0.73;;;;;;;11.51;69.01;98670.44;5087635;28;20028;-66
2023/10/12 01:37:22;;;;;;;4.32;1.27;;;;;;;11.57;68.61;98656.34;5087179;28;20029;-66
2023/10/12 01:39:57;;;;;;;7.53;1.42;;;;;;;11.51;68.83;98637.50;5069481;28;20092;-65
2023/10/12 01:45:40;;;;;;;2.33;0.85;;;;;;;11.58;68.59;98674.47;5087076;28;20060;-66
2023/10/12 01:48:05;;;;;;;3.72;1.13;;;;;;;11.62;67.79;98664.81;5086619;28;20033;-66
2023/10/12 01:50:37;;;;;;;5.15;0.85;;;;;;;11.60;67.62;98662.25;5087119;28;20024;-66
2023/10/12 01:53:24;;;;;;;4.17;2.13;;;;;;;11.55;67.55;98666.78;5085790;28;20020;-65
2023/10/12 01:55:54;;;;;;;7.75;1.85;;;;;;;11.58;67.44;98678.84;5087401;28;20261;-65
2023/10/12 01:58:20;;;;;;;14.13;2.15;;;;;;;11.54;67.38;98667.72;5069035;28;20040;-66
2023/10/12 02:00:52;;;;;;;15.20;1.98;;;;;;;11.51;66.88;98668.69;5087242;28;20024;-65
2023/10/12 02:03:26;;;;;;;3.90;1.85;;;;;;;11.62;66.57;98675.19;5086851;28;20059;-65
2023/10/12 02:06:06;;;;;;;4.60;1.30;;;;;;;11.60;66.11;98656.22;5087128;28;20103;-65
2023/10/12 02:08:34;;;;;;;2.30;1.27;;;;;;;11.61;67.10;98676.94;5085803;28;20035;-65
2023/10/12 02:11:26;;;;;;;6.75;1.10;;;;;;;11.52;66.92;98643.53;5086779;28;20042;-65
2023/10/12 02:13:54;;;;;;;2.67;1.17;;;;;;;11.71;66.99;98676.59;5086656;28;20025;-65
2023/10/12 02:16:31;;;;;;;5.78;1.73;;;;;;;11.67;67.13;98681.06;5086646;28;20036;-64
2023/10/12 02:18:58;;;;;;;4.20;1.60;;;;;;;11.67;67.20;98667.22;5086662;28;20016;-66
2023/10/12 02:21:25;;;;;;;3.08;1.15;;;;;;;11.68;67.20;98674.13;5086543;28;20028;-66
2023/10/12 02:34:20;;;;;;;9.75;2.22;;;;;;;11.48;67.52;98667.97;5086569;28;20024;-65
2023/10/12 02:39:38;;;;;;;7.72;1.70;;;;;;;11.47;67.67;98666.28;5086437;28;20032;-66
2023/10/12 02:44:57;;;;;;;2.30;1.67;;;;;;;11.45;68.00;98670.69;5086139;28;20047;-65
2023/10/12 02:47:22;;;;;;;7.20;2.23;;;;;;;11.45;68.13;98665.50;5086260;28;20414;-65
2023/10/12 02:52:32;;;;;;;11.90;2.22;;;;;;;11.38;67.49;98675.28;5085700;28;20052;-65
2023/10/12 02:55:07;;;;;;;6.93;1.65;;;;;;;11.36;67.20;98690.94;5086141;28;20388;-66
2023/10/12 02:57:33;;;;;;;3.80;0.98;;;;;;;11.26;66.10;98687.00;5085803;28;20025;-66
2023/10/12 03:00:12;;;;;;;9.07;1.00;;;;;;;11.23;64.41;98710.50;5085914;28;20054;-66
2023/10/12 03:02:41;;;;;;;2.20;0.95;;;;;;;11.25;63.93;98693.09;5068100;28;20071;-66
2023/10/12 03:05:07;;;;;;;1.63;0.82;;;;;;;11.24;64.13;98707.84;5085885;28;20085;-65
2023/10/12 03:07:36;;;;;;;4.20;1.20;;;;;;;11.23;63.83;98679.34;5067554;28;20120;-65
2023/10/12 03:12:54;;;;;;;4.22;1.67;;;;;;;11.17;64.36;98711.56;5085638;28;20058;-66
2023/10/12 03:15:19;;;;;;;6.30;1.90;;;;;;;11.19;65.05;98721.91;5085597;28;20047;-66
2023/10/12 03:17:58;;;;;;;8.95;1.58;;;;;;;11.21;64.99;98714.91;5085417;28;20492;-65
2023/10/12 03:20:24;;;;;;;2.03;1.00;;;;;;;11.19;64.91;98703.72;5085521;28;20028;-64
2023/10/12 03:22:53;;;;;;;2.58;1.35;;;;;;;11.22;64.93;98721.78;5085249;28;20036;-65
2023/10/12 03:25:36;;;;;;;9.43;1.75;;;;;;;11.25;64.94;98737.25;5085558;28;20051;-68
2023/10/12 03:28:11;;;;;;;10.48;3.42;;;;;;;11.28;64.73;98729.34;5085255;28;20020;-65
2023/10/12 03:30:43;;;;;;;3.15;0.98;;;;;;;11.23;64.89;98750.31;5085450;28;20541;-65
2023/10/12 03:33:15;;;;;;;4.78;1.67;;;;;;;11.31;64.91;98726.63;5085161;28;20025;-65
2023/10/12 03:35:57;;;;;;;2.08;0.93;;;;;;;11.34;65.12;98742.09;5085418;28;20100;-64
2023/10/12 03:38:25;;;;;;;1.75;1.10;;;;;;;11.35;65.80;98738.63;5085058;28;20032;-66
2023/10/12 03:40:52;;;;;;;4.55;1.83;;;;;;;11.47;65.80;98733.84;5085114;28;20020;-65
2023/10/12 03:43:27;;;;;;;7.45;2.22;;;;;;;11.39;66.31;98701.19;5085124;28;20016;-67
2023/10/12 03:46:17;;;;;;;6.22;1.10;;;;;;;11.38;66.15;98725.50;5084960;28;20083;-67
2023/10/12 03:51:38;;;;;;;0.60;0.55;;;;;;;11.20;64.47;98723.63;5085327;28;20077;-65
2023/10/12 03:54:11;;;;;;;3.20;1.30;;;;;;;11.12;63.82;98737.72;5084924;28;20025;-66
2023/10/12 03:56:39;;;;;;;8.00;1.40;;;;;;;11.18;63.65;98728.88;5084943;28;20055;-65
2023/10/12 03:59:08;;;;;;;3.83;1.58;;;;;;;11.14;63.61;98748.06;5085026;28;20031;-66
2023/10/12 04:01:40;;;;;;;5.15;1.42;;;;;;;11.14;63.65;98748.91;5084667;28;20468;-67
2023/10/12 04:09:42;;;;;;;8.88;3.05;;;;;;;11.12;62.76;98761.09;5085262;28;20086;-66
2023/10/12 04:14:46;;;;;;;5.25;1.63;;;;;;;11.10;63.08;98769.88;5085055;28;20028;-65
2023/10/12 04:22:40;;;;;;;2.22;1.15;;;;;;;10.95;63.39;98784.25;5084818;28;20025;-66
2023/10/12 04:25:13;;;;;;;0.82;0.68;;;;;;;11.05;62.72;98774.38;5084763;28;20032;-66
2023/10/12 04:27:39;;;;;;;2.60;0.75;;;;;;;11.01;62.77;98778.81;5084374;28;20084;-66
2023/10/12 04:30:20;;;;;;;1.75;0.90;;;;;;;10.88;62.86;98779.28;5084690;28;20468;-66
2023/10/12 04:36:25;;;;;;;5.47;1.40;;;;;;;10.88;62.35;98779.28;5089012;28;20035;-66
2023/10/12 04:41:23;;;;;;;8.27;1.33;;;;;;;10.85;63.20;98783.72;5088540;28;20016;-65
2023/10/12 04:43:34;;;;;;;10.43;2.17;;;;;;;10.83;63.35;98796.75;5088053;28;20021;-65
2023/10/12 04:46:06;;;;;;;6.68;1.13;;;;;;;10.84;63.71;98792.41;5088276;28;20550;-63
2023/10/12 04:48:31;;;;;;;5.97;1.38;;;;;;;10.82;63.83;98800.25;5088350;28;20031;-65
2023/10/12 04:50:59;;;;;;;0.93;0.93;;;;;;;10.85;63.93;98818.31;5088413;28;20044;-66
2023/10/12 04:53:53;;;;;;;19.27;2.15;;;;;;;10.73;63.91;98823.94;5070013;28;20020;-65
2023/10/12 04:56:11;;;;;;;3.22;1.58;;;;;;;10.87;64.21;98831.25;5088288;28;20028;-65
2023/10/12 04:58:37;;;;;;;6.07;1.95;;;;;;;10.91;63.93;98833.69;5088073;28;20036;-65
2023/10/12 05:04:07;;;;;;;7.68;1.52;;;;;;;10.78;64.53;98851.44;5087855;28;20074;-64
2023/10/12 05:06:35;;;;;;;2.53;1.40;;;;;;;10.84;64.71;98850.41;5087968;28;20024;-65
2023/10/12 05:09:10;;;;;;;9.70;2.42;;;;;;;10.87;64.44;98855.47;5069685;28;20430;-65
2023/10/12 05:11:36;;;;;;;0.30;0.30;;;;;;;10.81;64.57;98854.84;5088064;28;20036;-66
2023/10/12 05:14:11;;;;;;;4.38;1.35;;;;;;;10.87;64.32;98867.59;5088040;28;20024;-66
2023/10/12 05:16:42;;;;;;;2.60;1.73;;;;;;;10.84;64.37;98886.75;5087913;28;20025;-65
2023/10/12 05:19:08;;;;;;;4.38;1.73;;;;;;;10.81;64.36;98894.63;5088033;28;20025;-65
2023/10/12 05:21:34;;;;;;;1.85;0.73;;;;;;;10.78;64.10;98894.72;5069749;28;20119;-68
2023/10/12 05:23:59;;;;;;;2.78;1.35;;;;;;;10.68;64.48;98886.41;5087401;28;20020;-65
2023/10/12 05:26:27;;;;;;;2.80;0.95;;;;;;;10.78;64.21;98918.09;5069711;28;20025;-66
2023/10/12 05:29:17;;;;;;;4.72;2.10;;;;;;;10.79;64.42;98927.56;5087575;28;20025;-66
2023/10/12 05:31:48;;;;;;;1.58;0.98;;;;;;;10.83;64.73;98910.97;5086201;28;20017;-66
2023/10/12 05:34:32;;;;;;;5.38;1.35;;;;;;;10.83;64.39;98926.56;5087803;28;20032;-67
2023/10/12 05:37:08;;;;;;;6.03;1.33;;;;;;;10.85;64.42;98932.56;5087445;28;20042;-68
2023/10/12 05:39:36;;;;;;;18.77;2.38;;;;;;;10.89;64.14;98930.72;5087639;28;20054;-64
2023/10/12 05:42:05;;;;;;;4.13;1.58;;;;;;;10.84;64.22;98930.88;5086971;28;20016;-64
2023/10/12 05:44:31;;;;;;;10.45;2.40;;;;;;;10.82;64.48;98924.88;5085515;28;20113;-66
2023/10/12 05:46:59;;;;;;;8.88;1.42;;;;;;;10.87;64.31;98940.28;5087039;28;20028;-65
2023/10/12 05:49:25;;;;;;;5.38;1.52;;;;;;;10.84;64.42;98937.81;5087352;28;20091;-66
2023/10/12 05:51:51;;;;;;;4.47;2.13;;;;;;;10.83;64.58;98942.13;5069337;28;20436;-66
2023/10/12 05:54:20;;;;;;;6.13;2.03;;;;;;;10.84;64.33;98936.06;5087274;28;20024;-67
2023/10/12 05:56:47;;;;;;;8.55;1.95;;;;;;;10.80;64.31;98950.03;5087413;28;20021;-67
2023/10/12 05:59:13;;;;;;;2.45;1.23;;;;;;;10.82;64.06;98965.56;5087296;28;20092;-65
2023/10/12 06:01:40;;;;;;;5.25;1.52;;;;;;;10.83;64.28;98947.31;5087350;28;20074;-68
2023/10/12 06:04:06;;;;;;;5.05;1.80;;;;;;;10.79;64.51;98953.53;5087452;28;20372;-67
2023/10/12 06:06:36;;;;;;;2.08;1.30;;;;;;;10.82;64.51;98966.41;5087101;28;20464;-66
2023/10/12 06:09:11;;;;;;;8.63;1.38;;;;;;;10.89;64.63;98962.69;5086851;28;20020;-65
2023/10/12 06:11:40;;;;;;;4.50;1.85;;;;;;;10.86;64.41;98961.97;5068627;28;20021;-67
2023/10/12 06:14:05;;;;;;;3.78;1.38;;;;;;;10.94;64.23;98965.16;5086777;28;20100;-66
2023/10/12 06:16:38;;;;;;;12.70;1.85;;;;;;;11.05;64.26;98945.78;5086879;28;20047;-67
2023/10/12 06:19:05;;;;;;;8.38;1.88;;;;;;;11.12;64.14;98961.09;5085417;28;20028;-66
2023/10/12 06:21:32;;;;;;;3.95;1.15;;;;;;;11.05;63.63;98948.38;5086856;28;20043;-66
2023/10/12 06:23:59;;;;;;;6.38;1.30;;;;;;;11.08;63.13;98951.72;5086426;28;20025;-67
2023/10/12 06:26:31;;;;;;;1.65;0.85;;;;;;;11.20;62.57;98958.22;5085326;28;20411;-66
2023/10/12 06:29:00;;;;;;;5.38;1.70;;;;;;;11.45;61.90;98974.72;5086554;28;20490;-66
2023/10/12 06:31:29;;;;;;;1.75;1.65;;;;;;;11.76;61.43;98979.66;5086597;28;20036;-67
2023/10/12 06:33:56;;;;;;;6.43;0.90;;;;;;;12.04;59.98;98977.81;5086597;28;20028;-67
2023/10/12 06:36:36;;;;;;;6.15;1.67;;;;;;;12.20;59.78;98985.91;5068591;28;20054;-66
2023/10/12 06:44:22;;;;;;;6.03;1.40;;;;;;;12.75;58.67;98981.19;5086301;28;20024;-67
2023/10/12 06:46:48;;;;;;;5.55;1.50;;;;;;;12.87;58.52;98983.31;5086446;28;20046;-67
2023/10/12 06:49:21;;;;;;;1.80;0.90;;;;;;;13.13;58.45;99003.97;5086359;28;20020;-67
2023/10/12 06:52:00;;;;;;;7.68;2.25;;;;;;;13.25;57.86;99002.59;5086238;28;20027;-66
2023/10/12 06:54:39;;;;;;;1.05;0.85;;;;;;;13.31;57.54;98994.53;5086108;28;20103;-65
2023/10/12 06:59:52;;;;;;;2.70;0.77;;;;;;;13.27;57.00;99006.00;5086003;28;20056;-66
2023/10/12 07:02:22;;;;;;;3.28;1.63;;;;;;;13.30;57.20;99020.66;5086109;28;20024;-66
2023/10/12 07:04:53;;;;;;;0.88;0.88;;;;;;;13.27;56.96;99045.09;5067964;28;20021;-66
2023/10/12 07:07:26;;;;;;;6.53;1.80;;;;;;;13.39;57.25;99031.53;5085255;28;20024;-62
2023/10/12 07:09:53;;;;;;;0.95;0.52;;;;;;;13.29;56.20;99035.44;5085400;28;20035;-62
2023/10/12 07:12:19;;;;;;;9.60;1.15;;;;;;;13.23;56.05;99035.69;5085767;28;20028;-62
2023/10/12 07:14:47;;;;;;;3.78;1.60;;;;;;;13.12;56.51;99031.78;5067506;28;20044;-61
2023/10/12 07:17:14;;;;;;;10.73;1.42;;;;;;;13.16;56.78;99029.06;5085572;28;20028;-60
2023/10/12 07:19:55;;;;;;;14.43;1.20;;;;;;;13.44;57.33;99026.13;5085574;28;20024;-62
2023/10/12 07:22:20;;;;;;;5.55;1.83;;;;;;;13.71;56.47;99036.31;5085034;28;20028;-62
2023/10/12 07:24:53;;;;;;;4.00;0.85;;;;;;;13.95;56.25;99037.91;5067544;28;20087;-61
2023/10/12 07:27:23;;;;;;;2.78;1.15;;;;;;;14.23;55.75;99036.69;5085147;28;20028;-61
2023/10/12 07:30:08;;;;;;;1.65;0.60;;;;;;;14.57;54.82;99022.03;5085113;28;20496;-61
2023/10/12 07:32:38;;;;;;;1.25;1.02;;;;;;;14.65;53.16;99020.84;5085237;28;20055;-62
2023/10/12 07:35:12;;;;;;;3.95;1.00;;;;;;;14.74;52.45;99030.84;5085526;28;20028;-62
2023/10/12 07:37:42;;;;;;;3.25;1.40;;;;;;;14.86;52.33;99026.81;5085198;28;20390;-61
2023/10/12 07:40:18;;;;;;;3.30;0.85;;;;;;;14.84;52.68;99021.66;5085122;28;20024;-61
2023/10/12 07:42:46;;;;;;;2.28;0.90;;;;;;;14.92;52.12;99031.72;5066762;28;20472;-61
2023/10/12 07:45:16;;;;;;;8.25;1.33;;;;;;;14.99;52.54;99037.50;5084753;28;20067;-62
2023/10/12 07:47:42;;;;;;;4.38;0.95;;;;;;;15.17;51.87;99022.69;5066796;28;20026;-62
2023/10/12 07:50:30;;;;;;;3.47;0.65;;;;;;;15.24;50.91;99033.69;5085114;28;20020;-61
2023/10/12 07:53:21;;;;;;;6.28;0.75;;;;;;;15.40;50.45;99052.06;5085077;28;20025;-62
2023/10/12 07:55:53;;;;;;;5.70;1.17;;;;;;;15.55;50.19;99081.84;5085141;28;20030;-62
2023/10/12 07:58:18;;;;;;;2.10;0.77;;;;;;;15.78;49.38;99076.34;5084968;28;20024;-62
2023/10/12 08:00:51;;;;;;;4.55;1.17;;;;;;;15.89;49.65;99091.50;5085242;28;20032;-61
2023/10/12 08:03:24;;;;;;;2.63;0.60;;;;;;;16.17;48.77;99085.69;5085151;28;20025;-62
2023/10/12 08:06:06;;;;;;;4.35;1.00;;;;;;;16.06;48.76;99119.44;5084273;28;20141;-61
2023/10/12 08:08:35;;;;;;;3.95;1.33;;;;;;;16.09;49.12;99117.50;5084787;28;20097;-63
2023/10/12 08:11:50;;;;;;;9.32;1.50;;;;;;;16.29;48.74;99120.88;5085122;28;20035;-62
2023/10/12 08:13:54;;;;;;;2.83;1.23;;;;;;;16.65;48.72;99118.09;5070503;28;20043;-62
2023/10/12 08:16:25;;;;;;;1.95;0.80;;;;;;;17.04;47.63;99119.47;5083649;28;20115;-61
2023/10/12 08:21:32;;;;;;;2.17;0.77;;;;;;;17.32;45.61;99124.91;5085035;28;20021;-61
2023/10/12 08:29:17;;;;;;;;;;;;;;;17.89;44.12;99143.56;5085125;28;20024;-62
2023/10/12 08:31:45;;;;;;;1.85;1.10;;;;;;;17.41;44.27;99142.75;5084741;28;19908;-62
2023/10/12 08:34:41;;;;;;;1.02;0.85;;;;;;;17.28;45.20;99149.66;5084583;28;20028;-62
2023/10/12 08:39:39;;;;;;;12.25;1.20;;;;;;;17.71;44.00;99156.81;5084862;28;20020;-62
2023/10/12 08:44:50;;;;;;;1.80;1.05;;;;;;;17.61;42.81;99184.53;5084619;28;20070;-63
2023/10/12 08:47:31;;;;;;;4.00;1.08;;;;;;;17.36;44.22;99188.56;5084768;28;20025;-61
2023/10/12 08:50:08;;;;;;;0.95;0.60;;;;;;;17.59;44.83;99174.97;5084734;28;20028;-61
2023/10/12 08:52:38;;;;;;;7.35;1.13;;;;;;;17.71;44.10;99189.19;5084542;28;20020;-63
2023/10/12 08:55:11;;;;;;;3.00;0.93;;;;;;;17.59;44.04;99206.47;5084703;28;20041;-62
2023/10/12 08:58:01;;;;;;;3.08;1.30;;;;;;;17.77;44.24;99215.97;5084567;28;20025;-61
2023/10/12 09:03:02;;;;;;;2.85;1.08;;;;;;;18.12;43.21;99199.13;5084638;28;20056;-61
2023/10/12 09:05:33;;;;;;;2.33;0.93;;;;;;;18.09;43.24;99223.75;5084538;28;20026;-62
2023/10/12 09:08:08;;;;;;;1.55;0.88;;;;;;;18.29;43.62;99211.28;5084069;28;20054;-62
2023/10/12 09:10:51;;;;;;;5.75;1.80;;;;;;;18.86;42.43;99212.19;5084352;28;20091;-63
2023/10/12 09:13:24;;;;;;;3.67;1.50;;;;;;;18.81;41.84;99235.31;5084373;28;20040;-62
2023/10/12 09:15:57;;;;;;;1.35;0.85;;;;;;;18.74;41.54;99240.09;5084505;28;20017;-61
2023/10/12 09:18:29;;;;;;;10.52;1.77;;;;;;;18.83;40.66;99244.78;5069090;28;20024;-61
2023/10/12 09:31:13;;;;;;;2.00;0.73;;;;;;;17.58;41.88;99249.38;5088073;28;20028;-62
2023/10/12 09:33:47;;;;;;;1.53;0.77;;;;;;;17.78;41.09;99225.56;5087788;28;20056;-62
2023/10/12 09:36:13;;;;;;;3.83;1.10;;;;;;;17.55;41.55;99220.69;5087626;28;20276;-62
2023/10/12 09:38:38;;;;;;;1.08;0.68;;;;;;;17.68;41.31;99246.25;5087282;28;20099;-62
2023/10/12 09:41:08;;;;;;;4.55;1.30;;;;;;;17.75;40.55;99268.56;5087629;28;20029;-63
2023/10/12 09:43:38;;;;;;;3.35;0.98;;;;;;;18.07;41.14;99273.75;5087631;28;20020;-62
2023/10/12 09:46:06;;;;;;;3.55;0.98;;;;;;;18.41;40.62;99268.34;5087226;28;20066;-62
2023/10/12 09:48:38;;;;;;;3.05;1.02;;;;;;;18.64;40.50;99281.03;5087346;28;20027;-62
2023/10/12 09:51:10;;;;;;;2.25;0.90;;;;;;;19.49;40.13;99282.84;5087431;28;20020;-62
2023/10/12 09:53:41;;;;;;;2.30;1.23;;;;;;;19.15;39.99;99262.13;5087156;28;20029;-61
2023/10/12 09:56:12;;;;;;;20.33;1.73;;;;;;;19.46;38.42;99276.94;5087372;28;20094;-63
2023/10/12 10:01:22;;;;;;;4.18;1.88;;;;;;;20.80;37.02;99283.97;5087069;28;20032;-62
2023/10/12 10:03:48;;;;;;;5.38;1.75;;;;;;;20.59;35.27;99259.94;5087017;28;20488;-62
2023/10/12 10:06:20;;;;;;;2.70;1.08;;;;;;;19.65;36.60;99309.03;5087186;28;20024;-62
2023/10/12 10:09:02;;;;;;;4.10;1.02;;;;;;;19.24;37.99;99320.38;5086752;28;20116;-62
2023/10/12 10:11:29;;;;;;;2.05;1.05;;;;;;;19.36;37.30;99324.06;5087254;28;20122;-63
2023/10/12 10:13:54;;;;;;;2.28;0.82;;;;;;;19.46;37.92;99319.06;5086670;28;20237;-61
2023/10/12 10:16:20;;;;;;;3.22;1.17;;;;;;;19.32;38.43;99323.41;5086969;28;20493;-62
2023/10/12 10:18:53;;;;;;;5.70;1.23;;;;;;;19.73;38.62;99316.44;5086859;28;20025;-61
2023/10/12 10:21:19;;;;;;;4.80;1.65;;;;;;;20.12;37.05;99316.59;5086832;28;20499;-61
2023/10/12 10:23:52;;;;;;;2.55;1.23;;;;;;;20.13;37.19;99307.75;5086594;28;20017;-61
2023/10/12 10:26:23;;;;;;;2.22;0.80;;;;;;;20.18;36.57;99320.63;5086626;28;20024;-63
2023/10/12 10:28:55;;;;;;;0.85;0.75;;;;;;;20.11;37.22;99298.28;5085946;28;20082;-61
2023/10/12 10:31:31;;;;;;;5.57;1.08;;;;;;;20.10;35.80;99334.28;5086639;28;20024;-63
2023/10/12 10:34:01;;;;;;;7.63;1.13;;;;;;;19.92;35.76;99324.00;5086421;28;20016;-61
2023/10/12 10:36:34;;;;;;;2.38;1.20;;;;;;;19.79;36.00;99336.28;5086385;28;20062;-61
2023/10/12 10:39:07;;;;;;;3.90;1.17;;;;;;;19.68;35.79;99355.41;5086294;28;20080;-61
2023/10/12 10:41:42;;;;;;;10.55;1.63;;;;;;;19.43;36.20;99326.19;5085525;28;20044;-62
2023/10/12 10:44:15;;;;;;;7.53;1.27;;;;;;;19.45;36.12;99349.78;5086350;28;20016;-61
2023/10/12 10:46:44;;;;;;;2.47;1.13;;;;;;;19.27;36.05;99341.25;5066077;28;20044;-61
2023/10/12 10:49:15;;;;;;;7.85;1.40;;;;;;;18.80;35.84;99357.19;5066089;28;20020;-61
2023/10/12 10:51:47;;;;;;;;;;;;;;;18.38;36.22;99368.34;5065346;28;20025;-62
2023/10/12 10:54:18;;;;;;;2.28;1.10;;;;;;;18.14;37.80;99378.47;5065881;28;19913;-62
2023/10/12 10:56:47;;;;;;;1.73;1.17;;;;;;;18.42;37.41;99382.13;5066058;28;20033;-62
2023/10/12 10:59:13;;;;;;;3.53;0.90;;;;;;;18.64;37.07;99386.16;5066081;28;20053;-62
2023/10/12 11:01:48;;;;;;;4.20;1.17;;;;;;;18.69;37.49;99378.88;5066003;28;20094;-62
2023/10/12 11:04:55;;;;;;;4.45;1.40;;;;;;;18.49;37.13;99407.16;5065713;28;20424;-62
2023/10/12 11:07:19;;;;;;;2.97;0.85;;;;;;;18.51;37.22;99409.69;5061496;28;20044;-61
2023/10/12 11:12:22;;;;;;;2.10;0.73;;;;;;;18.12;37.82;99417.97;5066057;28;20025;-61
2023/10/12 11:15:01;;;;;;;3.75;1.02;;;;;;;18.05;38.30;99395.59;5065551;28;20048;-60
2023/10/12 11:17:30;;;;;;;1.80;1.30;;;;;;;17.19;38.62;99395.75;5065844;28;20108;-62
2023/10/12 11:19:57;;;;;;;3.47;0.98;;;;;;;16.32;39.74;99395.69;5065580;28;20280;-61
2023/10/12 11:22:23;;;;;;;5.68;1.25;;;;;;;15.48;41.35;99405.59;5065491;28;20024;-65
2023/10/12 11:24:49;;;;;;;6.32;2.58;;;;;;;14.92;42.23;99397.56;5065881;28;20042;-66
2023/10/12 11:27:35;;;;;;;7.10;1.23;;;;;;;14.52;43.46;99404.44;5065380;28;20113;-65
2023/10/12 11:30:12;;;;;;;2.92;0.88;;;;;;;14.29;43.97;99401.84;5065505;28;20092;-65
2023/10/12 11:32:53;;;;;;;5.15;1.58;;;;;;;13.96;44.79;99402.28;5065357;28;20051;-67
2023/10/12 11:35:32;;;;;;;2.22;0.98;;;;;;;13.72;45.63;99412.75;5065484;28;20032;-65
2023/10/12 11:37:58;;;;;;;1.15;0.88;;;;;;;13.64;45.88;99397.38;5065288;28;20108;-65
2023/10/12 11:40:30;;;;;;;4.40;1.40;;;;;;;13.46;46.39;99414.53;5064583;28;20358;-65
2023/10/12 11:42:56;;;;;;;8.18;1.75;;;;;;;13.43;45.98;99425.94;5065206;28;20027;-64
2023/10/12 11:45:22;;;;;;;3.10;1.27;;;;;;;13.35;46.25;99441.84;5075643;28;20048;-65
2023/10/12 11:47:50;;;;;;;4.10;0.85;;;;;;;13.32;46.47;99446.31;5085343;28;20047;-66
2023/10/12 11:50:31;;;;;;;6.65;1.33;;;;;;;13.24;46.97;99449.19;5085426;28;20117;-66
2023/10/12 11:52:57;;;;;;;1.90;0.90;;;;;;;13.22;47.57;99435.34;5066644;28;20024;-65
2023/10/12 11:55:27;;;;;;;7.05;0.52;;;;;;;13.29;47.79;99454.22;5085054;28;20107;-66
2023/10/12 11:57:54;;;;;;;3.50;1.17;;;;;;;13.17;48.15;99456.34;5085088;28;20092;-67
2023/10/12 12:02:46;;;;;;;0.70;0.50;;;;;;;13.22;48.62;99459.66;5085286;28;20029;-65
2023/10/12 12:05:12;;;;;;;2.38;0.98;;;;;;;13.09;48.64;99460.97;5085061;28;20058;-65
2023/10/12 12:07:37;;;;;;;3.42;0.88;;;;;;;13.17;49.37;99451.16;5066985;28;20025;-66
2023/10/12 12:10:07;;;;;;;3.40;1.00;;;;;;;13.16;49.66;99464.22;5084894;28;20015;-66
2023/10/12 12:12:38;;;;;;;3.20;1.50;;;;;;;13.27;49.51;99478.56;5066685;28;20017;-66
2023/10/12 12:15:04;;;;;;;1.75;1.50;;;;;;;13.36;49.66;99474.81;5083434;28;20025;-65
2023/10/12 12:17:29;;;;;;;5.00;1.33;;;;;;;13.43;49.43;99485.88;5066880;28;20035;-64
2023/10/12 12:19:55;;;;;;;5.20;0.93;;;;;;;13.44;49.52;99474.53;5084429;28;20024;-65
2023/10/12 12:22:23;;;;;;;1.85;0.80;;;;;;;13.54;48.90;99475.09;5084515;28;20217;-64
2023/10/12 12:24:48;;;;;;;2.25;1.25;;;;;;;13.26;49.54;99483.84;5084874;28;20017;-65
2023/10/12 12:27:37;;;;;;;2.17;1.65;;;;;;;13.29;49.88;99495.94;5084254;28;20027;-65
2023/10/12 12:30:07;;;;;;;4.47;1.25;;;;;;;13.27;49.87;99506.41;5084622;28;20109;-65
2023/10/12 12:32:33;;;;;;;6.43;1.88;;;;;;;13.22;49.93;99492.69;5084220;28;20493;-65
2023/10/12 12:34:58;;;;;;;1.58;0.98;;;;;;;13.21;49.35;99491.81;5084533;28;20032;-66
2023/10/12 12:37:25;;;;;;;0.75;0.45;;;;;;;13.08;49.27;99494.00;5082975;28;20153;-67
2023/10/12 12:42:37;;;;;;;3.05;0.75;;;;;;;12.89;50.68;99491.19;5084623;28;20032;-65
2023/10/12 12:45:03;;;;;;;9.02;0.70;;;;;;;12.78;51.19;99499.31;5084224;28;20056;-65
2023/10/12 12:47:32;;;;;;;3.65;1.10;;;;;;;12.77;51.50;99489.81;5084544;28;20072;-67
2023/10/12 12:50:00;;;;;;;4.50;1.73;;;;;;;12.69;51.79;99491.78;5066359;28;20067;-66
2023/10/12 12:52:26;;;;;;;1.70;0.90;;;;;;;12.67;51.81;99483.22;5085505;28;20021;-65
2023/10/12 12:54:51;;;;;;;9.05;1.20;;;;;;;12.65;51.82;99496.28;5088357;28;20021;-63
2023/10/12 12:57:16;;;;;;;0.90;0.75;;;;;;;12.70;51.90;99501.34;5088452;28;20036;-65
2023/10/12 12:59:42;;;;;;;7.88;1.55;;;;;;;12.66;52.48;99499.72;5088222;28;20021;-65
2023/10/12 13:02:07;;;;;;;4.28;1.52;;;;;;;12.66;52.50;99490.16;5087033;28;20017;-67
2023/10/12 13:04:35;;;;;;;6.28;1.20;;;;;;;12.67;52.96;99506.63;5070015;28;20145;-66
2023/10/12 13:07:08;;;;;;;1.55;0.88;;;;;;;12.60;52.75;99491.19;5088338;28;20029;-65
2023/10/12 13:09:34;;;;;;;4.75;1.27;;;;;;;12.53;53.05;99497.50;5088112;28;20025;-65
2023/10/12 13:11:59;;;;;;;10.05;1.20;;;;;;;12.50;52.85;99531.44;5088123;28;20109;-65
2023/10/12 13:14:28;;;;;;;2.85;1.42;;;;;;;12.48;52.12;99517.59;5087803;28;20024;-65
2023/10/12 13:16:54;;;;;;;4.85;1.13;;;;;;;12.40;52.04;99536.06;5087836;28;20021;-65
2023/10/12 13:19:20;;;;;;;4.68;1.15;;;;;;;12.26;52.03;99523.47;5088031;28;20020;-65
2023/10/12 13:21:45;;;;;;;5.25;1.50;;;;;;;12.19;51.86;99547.97;5088061;28;20050;-65
2023/10/12 13:24:12;;;;;;;1.88;0.68;;;;;;;12.19;52.16;99543.59;5087681;28;20032;-65
2023/10/12 13:26:43;;;;;;;4.43;1.52;;;;;;;12.30;51.87;99558.06;5087840;28;20016;-66
2023/10/12 13:29:09;;;;;;;1.00;0.70;;;;;;;12.36;51.87;99561.31;5087955;28;20025;-67
2023/10/12 13:31:35;;;;;;;5.35;0.90;;;;;;;12.32;52.29;99564.94;5087729;28;20029;-66